Time;durP1;ratioP1;P1;durP2;ratioP2;P2;SDS_P1;SDS_P2;PMS_P1;PMS_P2;Temp;Humidity;BMP_temperature;BMP_pressure;BME280_temperature;BME280_humidity;BME280_pressure;Samples;Min_cycle;Max_cycle;Signal;HPM_P1;HPM_P2
2022/08/13 00:00:32;;;;;;;3.10;2.40;;;23.10;75.80;;;;;;6337530;22;20401;-76
2022/08/13 00:02:59;;;;;;;7.03;2.70;;;23.10;75.80;;;;;;6337794;22;20326;-76
2022/08/13 00:05:26;;;;;;;2.72;2.50;;;23.00;76.00;;;;;;6340343;22;20010;-74
2022/08/13 00:07:52;;;;;;;2.97;2.33;;;23.10;75.70;;;;;;6338878;22;20002;-76
2022/08/13 00:10:30;;;;;;;3.17;2.88;;;23.00;75.60;;;;;;6337513;22;20006;-76
2022/08/13 00:12:56;;;;;;;2.65;2.30;;;22.90;75.70;;;;;;6338062;22;20003;-76
2022/08/13 00:15:27;;;;;;;2.60;2.40;;;22.90;76.00;;;;;;6337631;22;20415;-76
2022/08/13 00:17:56;;;;;;;2.45;2.25;;;22.90;76.10;;;;;;6339235;22;20028;-75
2022/08/13 00:20:24;;;;;;;3.40;2.70;;;22.90;76.10;;;;;;6337957;22;20006;-76
2022/08/13 00:22:50;;;;;;;3.72;2.53;;;22.90;76.40;;;;;;6338477;22;20097;-75
2022/08/13 00:25:16;;;;;;;2.58;2.20;;;22.80;76.10;;;;;;6337389;22;20041;-76
2022/08/13 00:27:47;;;;;;;2.38;2.17;;;22.80;76.40;;;;;;6337220;22;20003;-76
2022/08/13 00:30:16;;;;;;;2.80;2.25;;;22.80;76.40;;;;;;6336988;22;20141;-75
2022/08/13 00:32:45;;;;;;;4.68;2.80;;;22.70;76.50;;;;;;6337909;22;19994;-75
2022/08/13 00:35:12;;;;;;;2.72;2.53;;;22.70;76.50;;;;;;6337288;22;20075;-75
2022/08/13 00:37:41;;;;;;;2.60;2.22;;;22.70;76.90;;;;;;6337171;22;20038;-74
2022/08/13 00:40:10;;;;;;;6.63;2.58;;;22.60;77.20;;;;;;6337404;22;20430;-75
2022/08/13 00:42:40;;;;;;;2.67;2.47;;;22.60;77.50;;;;;;6337984;22;20361;-76
2022/08/13 00:45:07;;;;;;;2.23;2.10;;;22.50;77.30;;;;;;6337680;22;20002;-76
2022/08/13 00:50:19;;;;;;;6.55;3.45;;;22.40;77.70;;;;;;6337244;22;20013;-75
2022/08/13 00:52:45;;;;;;;4.15;3.75;;;22.40;77.70;;;;;;6337124;22;20006;-76
2022/08/13 00:55:15;;;;;;;7.07;3.75;;;22.30;77.80;;;;;;6336733;22;20380;-76
2022/08/13 00:57:44;;;;;;;4.30;3.17;;;22.30;78.10;;;;;;6337182;22;20030;-76
2022/08/13 01:00:13;;;;;;;3.10;2.80;;;22.20;78.20;;;;;;6336916;22;20072;-75
2022/08/13 01:02:59;;;;;;;6.78;3.13;;;22.20;78.40;;;;;;6337386;22;20296;-76
2022/08/13 01:05:27;;;;;;;2.50;2.30;;;22.10;78.60;;;;;;6337184;22;20017;-76
2022/08/13 01:07:55;;;;;;;2.67;2.45;;;22.10;78.80;;;;;;6339485;22;20009;-75
2022/08/13 01:10:23;;;;;;;2.90;2.60;;;22.00;78.90;;;;;;6338881;22;20002;-75
2022/08/13 01:12:51;;;;;;;6.50;2.75;;;21.90;79.20;;;;;;6339051;22;20036;-76
2022/08/13 01:15:18;;;;;;;2.58;2.40;;;21.80;79.20;;;;;;6338985;22;20006;-74
2022/08/13 01:17:47;;;;;;;3.30;2.30;;;21.90;79.40;;;;;;6339019;22;20046;-75
2022/08/13 01:20:21;;;;;;;5.07;2.53;;;21.80;79.70;;;;;;6338400;22;20009;-74
2022/08/13 01:22:49;;;;;;;3.47;2.70;;;21.80;79.90;;;;;;6338697;22;20737;-75
2022/08/13 01:25:16;;;;;;;3.78;2.85;;;21.70;79.90;;;;;;6338589;22;20025;-75
2022/08/13 01:27:43;;;;;;;3.05;2.28;;;21.70;80.10;;;;;;6338623;22;20453;-76
2022/08/13 01:30:10;;;;;;;3.38;2.85;;;21.70;80.10;;;;;;6339508;22;20328;-75
2022/08/13 01:32:37;;;;;;;3.63;2.42;;;21.70;80.10;;;;;;6338840;22;20026;-75
2022/08/13 01:35:05;;;;;;;3.30;2.50;;;21.70;80.40;;;;;;6338321;22;20525;-75
2022/08/13 01:37:33;;;;;;;4.13;2.47;;;21.70;80.30;;;;;;6338562;22;20003;-75
2022/08/13 01:39:59;;;;;;;5.78;2.60;;;21.60;80.30;;;;;;6339242;22;20086;-74
2022/08/13 01:42:25;;;;;;;3.22;2.40;;;21.60;80.40;;;;;;6339220;22;19995;-75
2022/08/13 01:44:51;;;;;;;2.70;2.50;;;21.60;80.60;;;;;;6338903;22;20075;-75
2022/08/13 01:52:50;;;;;;;4.53;2.60;;;21.50;80.70;;;;;;6339070;22;20491;-75
2022/08/13 01:55:17;;;;;;;4.80;2.95;;;21.50;80.70;;;;;;6338108;22;20300;-75
2022/08/13 01:57:44;;;;;;;2.33;2.13;;;21.50;80.70;;;;;;6338698;22;20094;-75
2022/08/13 02:00:16;;;;;;;3.25;2.55;;;21.50;81.00;;;;;;6338494;22;20002;-75
2022/08/13 02:02:43;;;;;;;3.17;2.70;;;21.50;80.90;;;;;;6338457;22;20002;-75
2022/08/13 02:05:10;;;;;;;2.78;2.50;;;21.40;81.00;;;;;;6338680;22;19998;-75
2022/08/13 02:07:38;;;;;;;3.95;2.80;;;21.40;81.10;;;;;;6339033;22;19999;-75
2022/08/13 02:10:04;;;;;;;2.95;2.42;;;21.40;81.20;;;;;;6338243;22;20007;-75
2022/08/13 02:12:30;;;;;;;3.22;2.35;;;21.40;81.20;;;;;;6337937;22;20026;-75
2022/08/13 02:14:58;;;;;;;2.83;2.63;;;21.30;81.30;;;;;;6338579;22;20010;-75
2022/08/13 02:17:27;;;;;;;5.63;2.78;;;21.30;81.40;;;;;;6336799;22;20013;-75
2022/08/13 02:19:56;;;;;;;4.25;2.78;;;21.30;81.40;;;;;;6338151;22;20123;-75
2022/08/13 02:22:23;;;;;;;2.92;2.65;;;21.30;81.70;;;;;;6338432;22;20003;-75
2022/08/13 02:24:56;;;;;;;2.83;2.60;;;21.30;81.60;;;;;;6337751;22;20127;-75
2022/08/13 02:27:25;;;;;;;2.72;2.53;;;21.20;81.70;;;;;;6338221;22;20063;-75
2022/08/13 02:29:53;;;;;;;6.00;3.05;;;21.20;81.70;;;;;;6338100;22;20025;-75
2022/08/13 02:32:19;;;;;;;4.07;3.15;;;21.20;81.80;;;;;;6338362;22;19998;-75
2022/08/13 02:34:50;;;;;;;3.97;2.88;;;21.20;82.10;;;;;;6338376;22;20013;-75
2022/08/13 02:37:21;;;;;;;4.00;2.80;;;21.20;82.10;;;;;;6337627;22;20082;-75
2022/08/13 02:39:51;;;;;;;4.10;2.63;;;21.20;82.10;;;;;;6337981;22;20037;-75
2022/08/13 02:42:17;;;;;;;6.35;2.60;;;21.10;82.40;;;;;;6338158;22;19999;-75
2022/08/13 02:44:48;;;;;;;6.78;2.83;;;21.10;82.50;;;;;;6337655;22;20489;-75
2022/08/13 02:47:18;;;;;;;3.40;3.10;;;21.10;82.70;;;;;;6338081;22;20042;-75
2022/08/13 02:49:44;;;;;;;;;;;21.00;82.70;;;;;;6339058;22;20003;-75
2022/08/13 02:52:10;;;;;;;4.65;3.17;;;20.90;83.00;;;;;;6337654;22;19902;-75
2022/08/13 02:54:40;;;;;;;6.03;2.85;;;21.00;83.10;;;;;;6338302;22;20043;-75
2022/08/13 02:57:06;;;;;;;;;;;20.90;83.40;;;;;;6339026;22;20002;-75
2022/08/13 02:59:32;;;;;;;3.13;2.83;;;20.90;83.50;;;;;;6337480;22;19914;-75
2022/08/13 03:01:59;;;;;;;3.22;2.83;;;20.80;83.60;;;;;;6338310;22;19995;-75
2022/08/13 03:04:25;;;;;;;3.70;3.38;;;20.80;83.80;;;;;;6338339;22;20013;-75
2022/08/13 03:06:51;;;;;;;2.92;2.70;;;20.80;84.00;;;;;;6338094;22;20030;-75
2022/08/13 03:09:20;;;;;;;3.92;2.60;;;20.80;84.00;;;;;;6338387;22;20014;-76
2022/08/13 03:11:47;;;;;;;3.40;2.80;;;20.70;83.90;;;;;;6342044;22;20006;-75
2022/08/13 03:14:13;;;;;;;4.97;2.60;;;20.80;84.30;;;;;;6341386;22;20029;-75
2022/08/13 03:16:39;;;;;;;4.28;3.05;;;20.70;84.20;;;;;;6342617;22;20411;-74
2022/08/13 03:19:06;;;;;;;3.95;2.78;;;20.60;84.10;;;;;;6341632;22;20010;-76
2022/08/13 03:21:35;;;;;;;3.15;2.88;;;20.70;84.50;;;;;;6344944;22;20408;-76
2022/08/13 03:24:03;;;;;;;5.82;3.60;;;20.70;84.40;;;;;;6342703;22;20030;-75
2022/08/13 03:26:33;;;;;;;4.47;3.00;;;20.60;84.50;;;;;;6341938;22;20063;-74
2022/08/13 03:29:01;;;;;;;3.00;2.53;;;20.60;84.80;;;;;;6340438;22;19995;-75
2022/08/13 03:31:30;;;;;;;4.38;2.45;;;20.60;85.00;;;;;;6339671;22;20006;-75
2022/08/13 03:34:00;;;;;;;4.25;2.85;;;20.60;84.90;;;;;;6338258;22;20003;-76
2022/08/13 03:36:26;;;;;;;3.20;2.90;;;20.50;84.90;;;;;;6337802;22;20457;-76
2022/08/13 03:38:52;;;;;;;7.15;3.55;;;20.50;85.40;;;;;;6338616;22;20018;-75
2022/08/13 03:41:18;;;;;;;3.03;2.72;;;20.50;85.40;;;;;;6337107;22;20003;-75
2022/08/13 03:43:47;;;;;;;3.55;2.42;;;20.50;85.60;;;;;;6337663;22;20006;-74
2022/08/13 03:46:14;;;;;;;5.18;3.85;;;20.50;85.70;;;;;;6337323;22;20002;-74
2022/08/13 03:48:40;;;;;;;4.25;2.92;;;20.40;85.80;;;;;;6337473;22;20005;-74
2022/08/13 03:51:07;;;;;;;3.90;2.90;;;20.40;86.00;;;;;;6337311;22;19998;-75
2022/08/13 03:53:33;;;;;;;5.97;2.70;;;20.30;86.30;;;;;;6337465;22;20052;-74
2022/08/13 03:55:59;;;;;;;4.35;3.72;;;20.40;86.30;;;;;;6337505;22;20058;-74
2022/08/13 03:58:26;;;;;;;3.28;2.97;;;20.30;86.40;;;;;;6337495;22;20090;-74
2022/08/13 04:00:53;;;;;;;3.10;2.80;;;20.30;86.40;;;;;;6338353;22;20066;-76
2022/08/13 04:03:35;;;;;;;4.25;3.05;;;20.20;86.40;;;;;;6336496;22;20056;-75
2022/08/13 04:06:03;;;;;;;4.13;3.28;;;20.20;87.00;;;;;;6337825;22;20047;-74
2022/08/13 04:08:35;;;;;;;6.28;3.58;;;20.20;86.50;;;;;;6336593;22;20104;-74
2022/08/13 04:11:03;;;;;;;3.33;3.03;;;20.20;86.60;;;;;;6337342;22;19999;-74
2022/08/13 04:13:31;;;;;;;3.47;3.17;;;20.20;86.60;;;;;;6336830;22;20336;-74
2022/08/13 04:15:57;;;;;;;6.47;3.30;;;20.20;86.60;;;;;;6337031;22;19998;-74
2022/08/13 04:18:22;;;;;;;3.58;3.10;;;20.20;86.50;;;;;;6337103;22;20015;-74
2022/08/13 04:20:52;;;;;;;4.63;3.08;;;20.20;86.50;;;;;;6337690;22;19999;-74
2022/08/13 04:23:19;;;;;;;4.97;2.97;;;20.10;86.50;;;;;;6336685;22;20327;-75
2022/08/13 04:25:47;;;;;;;6.88;3.20;;;20.20;86.60;;;;;;6337852;22;20002;-75
2022/08/13 04:28:15;;;;;;;3.83;3.42;;;20.10;86.80;;;;;;6337004;22;20010;-75
2022/08/13 04:30:41;;;;;;;6.60;3.65;;;20.10;86.90;;;;;;6336990;22;19999;-75
2022/08/13 04:33:11;;;;;;;3.88;2.97;;;20.10;86.90;;;;;;6337552;22;20003;-75
2022/08/13 04:35:38;;;;;;;10.02;4.43;;;20.10;87.00;;;;;;6337900;22;20417;-74
2022/08/13 04:38:05;;;;;;;4.28;3.63;;;20.10;87.10;;;;;;6336883;22;20011;-73
2022/08/13 04:40:36;;;;;;;7.63;3.47;;;20.10;87.10;;;;;;6337515;22;20005;-74
2022/08/13 04:43:05;;;;;;;5.82;3.13;;;20.10;87.20;;;;;;6339488;22;20025;-75
2022/08/13 04:45:32;;;;;;;7.43;2.75;;;20.10;87.20;;;;;;6338183;22;20476;-74
2022/08/13 04:48:03;;;;;;;4.40;3.47;;;20.10;87.20;;;;;;6311413;22;20093;-74
2022/08/13 04:50:32;;;;;;;5.40;3.38;;;20.10;87.20;;;;;;6338664;22;20003;-74
2022/08/13 04:52:59;;;;;;;3.58;3.25;;;20.10;87.20;;;;;;6339218;22;20006;-74
2022/08/13 04:55:26;;;;;;;3.33;3.00;;;20.10;87.30;;;;;;6338347;22;20326;-74
2022/08/13 04:57:52;;;;;;;5.82;3.40;;;20.10;87.20;;;;;;6338478;22;20013;-74
2022/08/13 05:00:20;;;;;;;3.03;2.70;;;20.10;87.30;;;;;;6337373;22;20081;-74
2022/08/13 05:02:46;;;;;;;7.22;3.70;;;20.20;87.30;;;;;;6338671;22;20009;-73
2022/08/13 05:05:12;;;;;;;8.63;3.08;;;19.90;87.00;;;;;;6337279;22;20022;-73
2022/08/13 05:07:39;;;;;;;4.50;3.30;;;20.30;87.10;;;;;;6337833;22;20014;-73
2022/08/13 05:10:10;;;;;;;4.25;3.60;;;20.30;86.90;;;;;;6338954;22;20007;-73
2022/08/13 05:12:36;;;;;;;7.65;2.70;;;20.40;86.90;;;;;;6338185;22;20372;-74
2022/08/13 05:15:03;;;;;;;3.25;2.97;;;20.40;87.10;;;;;;6338721;22;19995;-74
2022/08/13 05:17:30;;;;;;;6.45;3.08;;;20.40;87.00;;;;;;6338366;22;20006;-74
2022/08/13 05:19:56;;;;;;;6.05;3.17;;;20.40;86.80;;;;;;6338350;22;20326;-74
2022/08/13 05:22:23;;;;;;;5.88;3.13;;;20.50;86.90;;;;;;6337792;22;20023;-73
2022/08/13 05:24:55;;;;;;;4.57;3.00;;;20.50;86.70;;;;;;6338490;22;20019;-74
2022/08/13 05:27:21;;;;;;;3.05;2.85;;;20.60;86.60;;;;;;6337883;22;20010;-74
2022/08/13 05:29:50;;;;;;;6.95;3.03;;;20.70;86.50;;;;;;6338575;22;20482;-75
2022/08/13 05:32:16;;;;;;;3.03;2.65;;;20.70;86.40;;;;;;6338222;22;20007;-74
2022/08/13 05:34:42;;;;;;;4.80;2.90;;;20.70;86.30;;;;;;6338100;22;20002;-74
2022/08/13 05:37:07;;;;;;;3.65;2.67;;;20.80;86.00;;;;;;6338676;22;20373;-74
2022/08/13 05:39:33;;;;;;;4.75;2.63;;;20.80;85.70;;;;;;6338555;22;20034;-75
2022/08/13 05:41:59;;;;;;;5.28;3.53;;;20.90;85.80;;;;;;6337592;22;20003;-74
2022/08/13 05:44:25;;;;;;;7.75;2.85;;;20.90;85.80;;;;;;6338496;22;20010;-74
2022/08/13 05:46:51;;;;;;;6.57;2.53;;;20.90;85.30;;;;;;6334528;22;19991;-74
2022/08/13 05:49:17;;;;;;;9.73;2.92;;;21.00;85.00;;;;;;6336391;22;20003;-76
2022/08/13 05:51:48;;;;;;;4.25;2.78;;;21.00;85.10;;;;;;6336824;22;20062;-74
2022/08/13 05:54:13;;;;;;;3.45;2.80;;;21.10;85.10;;;;;;6336317;22;20081;-74
2022/08/13 05:56:39;;;;;;;3.88;2.97;;;21.20;85.10;;;;;;6336247;22;20029;-74
2022/08/13 05:59:06;;;;;;;3.78;2.70;;;21.20;85.10;;;;;;6336203;22;20018;-75
2022/08/13 06:04:19;;;;;;;3.47;2.88;;;21.20;84.90;;;;;;6335554;22;20014;-74
2022/08/13 06:06:46;;;;;;;3.42;2.90;;;21.30;85.00;;;;;;6337111;22;20022;-74
2022/08/13 06:09:12;;;;;;;5.13;2.80;;;21.40;85.00;;;;;;6335949;22;20068;-73
2022/08/13 06:11:41;;;;;;;5.57;3.00;;;21.30;85.00;;;;;;6336296;22;20037;-75
2022/08/13 06:14:08;;;;;;;3.95;2.50;;;21.40;85.00;;;;;;6336651;22;20024;-74
2022/08/13 06:16:37;;;;;;;10.40;2.55;;;21.40;84.90;;;;;;6336815;22;20029;-74
2022/08/13 06:19:03;;;;;;;2.67;2.42;;;21.50;85.30;;;;;;6336607;22;20064;-74
2022/08/13 06:21:29;;;;;;;5.72;2.97;;;21.50;85.20;;;;;;6335966;22;20082;-74
2022/08/13 06:23:56;;;;;;;4.05;3.00;;;21.50;85.10;;;;;;6334924;22;20011;-74
2022/08/13 06:26:23;;;;;;;11.00;3.60;;;21.50;85.00;;;;;;6336915;22;20006;-74
2022/08/13 06:28:53;;;;;;;2.53;2.33;;;21.50;84.80;;;;;;6335979;22;20011;-74
2022/08/13 06:31:28;;;;;;;3.63;2.60;;;21.60;85.30;;;;;;6337177;22;20013;-75
2022/08/13 06:33:57;;;;;;;9.88;2.83;;;21.70;85.50;;;;;;6338129;22;20002;-74
2022/08/13 06:36:28;;;;;;;6.38;3.10;;;21.70;85.20;;;;;;6337265;22;20082;-74
2022/08/13 06:38:56;;;;;;;9.00;3.13;;;21.80;84.60;;;;;;6338004;22;20021;-75
2022/08/13 06:41:22;;;;;;;3.53;2.67;;;21.80;84.70;;;;;;6337904;22;20433;-75
2022/08/13 06:43:50;;;;;;;2.90;2.60;;;21.80;85.20;;;;;;6337693;22;20007;-73
2022/08/13 06:46:28;;;;;;;3.67;2.80;;;21.90;85.20;;;;;;6337524;22;20014;-74
2022/08/13 06:48:58;;;;;;;2.97;2.40;;;21.90;85.10;;;;;;6338083;22;20010;-74
2022/08/13 06:51:24;;;;;;;3.13;2.63;;;21.90;85.10;;;;;;6337198;22;19998;-75
2022/08/13 06:53:49;;;;;;;2.97;2.58;;;22.00;85.50;;;;;;6337584;22;20007;-75
2022/08/13 06:56:20;;;;;;;5.82;2.45;;;22.00;85.80;;;;;;6337150;22;20039;-75
2022/08/13 06:58:51;;;;;;;8.70;3.08;;;22.10;86.00;;;;;;6337253;22;20014;-75
2022/08/13 07:01:19;;;;;;;7.28;3.50;;;22.00;86.10;;;;;;6309552;22;20055;-74
2022/08/13 07:03:45;;;;;;;6.35;2.75;;;22.10;86.10;;;;;;6337962;22;20026;-74
2022/08/13 07:06:19;;;;;;;3.67;2.63;;;22.20;86.00;;;;;;6336559;22;20407;-74
2022/08/13 07:08:45;;;;;;;3.75;2.78;;;22.20;85.80;;;;;;6337719;22;20002;-75
2022/08/13 07:11:23;;;;;;;3.47;3.00;;;22.30;85.40;;;;;;6336969;22;19995;-74
2022/08/13 07:13:54;;;;;;;4.32;2.60;;;22.30;85.50;;;;;;6337688;22;20013;-75
2022/08/13 07:16:22;;;;;;;7.38;2.97;;;22.40;85.70;;;;;;6337738;22;19999;-75
2022/08/13 07:18:50;;;;;;;6.80;3.00;;;22.40;85.80;;;;;;6337146;22;20014;-75
2022/08/13 07:21:24;;;;;;;3.00;2.63;;;22.50;85.60;;;;;;6337103;22;20005;-74
2022/08/13 07:23:51;;;;;;;4.10;3.05;;;22.50;85.30;;;;;;6337826;22;20097;-76
2022/08/13 07:26:18;;;;;;;7.78;3.00;;;22.60;85.30;;;;;;6337305;22;19999;-75
2022/08/13 07:28:45;;;;;;;5.00;2.92;;;22.60;85.40;;;;;;6338115;22;20006;-74
2022/08/13 07:31:12;;;;;;;5.47;3.08;;;22.70;85.70;;;;;;6337858;22;20026;-76
2022/08/13 07:33:42;;;;;;;3.30;2.63;;;22.70;85.70;;;;;;6337089;22;20451;-75
2022/08/13 07:36:12;;;;;;;10.48;3.30;;;22.80;85.80;;;;;;6337894;22;20007;-76
2022/08/13 07:38:38;;;;;;;4.00;2.70;;;22.80;85.80;;;;;;6338000;22;20011;-75
2022/08/13 07:41:04;;;;;;;8.35;2.70;;;22.90;85.00;;;;;;6337169;22;20360;-74
2022/08/13 07:43:35;;;;;;;6.13;2.58;;;23.00;84.80;;;;;;6337005;22;20410;-75
2022/08/13 07:46:07;;;;;;;7.30;2.30;;;23.00;84.60;;;;;;6339119;22;20006;-79
2022/08/13 07:48:34;;;;;;;3.53;2.50;;;23.20;85.00;;;;;;6337301;22;20692;-81
2022/08/13 07:51:01;;;;;;;3.50;2.42;;;23.20;84.70;;;;;;6338498;22;20418;-75
2022/08/13 07:53:28;;;;;;;4.70;2.53;;;23.30;84.00;;;;;;6337304;22;20048;-75
2022/08/13 07:55:56;;;;;;;9.18;2.90;;;23.40;83.50;;;;;;6338597;22;20025;-76
2022/08/13 07:58:27;;;;;;;3.90;2.15;;;23.40;83.10;;;;;;6338479;22;20015;-78
2022/08/13 08:00:59;;;;;;;3.92;2.33;;;23.50;82.40;;;;;;6338809;22;20006;-76
2022/08/13 08:03:39;;;;;;;2.72;2.50;;;23.50;82.40;;;;;;6312667;22;20034;-77
2022/08/13 08:06:05;;;;;;;2.97;1.90;;;23.60;82.30;;;;;;6339548;22;20073;-76
2022/08/13 08:08:33;;;;;;;2.35;2.15;;;23.70;82.50;;;;;;6339123;22;20003;-76
2022/08/13 08:11:01;;;;;;;2.45;2.25;;;23.80;82.00;;;;;;6349666;22;19999;-77
2022/08/13 08:13:28;;;;;;;5.47;2.08;;;23.90;82.00;;;;;;6347348;22;20097;-76
2022/08/13 08:15:56;;;;;;;3.55;1.90;;;23.90;82.00;;;;;;6349034;22;20088;-77
2022/08/13 08:18:22;;;;;;;2.58;2.30;;;24.00;81.70;;;;;;6349137;22;20071;-78
2022/08/13 08:20:48;;;;;;;3.47;1.95;;;24.10;81.50;;;;;;6350626;22;20002;-76
2022/08/13 08:23:16;;;;;;;2.05;1.85;;;24.10;81.60;;;;;;6351052;22;20045;-77
2022/08/13 08:25:43;;;;;;;2.13;1.88;;;24.00;81.20;;;;;;6357463;22;20007;-78
2022/08/13 08:28:11;;;;;;;3.15;1.80;;;24.30;81.30;;;;;;6354526;22;20007;-78
2022/08/13 08:30:37;;;;;;;6.38;1.95;;;24.30;81.00;;;;;;6350029;22;20026;-81
2022/08/13 08:33:04;;;;;;;25.13;3.13;;;24.40;80.60;;;;;;6340278;22;20437;-78
2022/08/13 08:35:30;;;;;;;10.07;2.30;;;24.50;79.90;;;;;;6339120;22;20485;-78
2022/08/13 08:43:35;;;;;;;3.47;2.00;;;24.70;81.10;;;;;;6339602;22;20017;-77
2022/08/13 08:46:05;;;;;;;7.50;2.03;;;24.70;80.90;;;;;;6339165;22;19995;-79
2022/08/13 08:48:32;;;;;;;2.90;1.75;;;24.80;79.40;;;;;;6340190;22;20326;-78
2022/08/13 08:50:59;;;;;;;4.32;1.90;;;24.80;79.80;;;;;;6339356;22;20083;-78
2022/08/13 08:53:27;;;;;;;4.30;2.25;;;24.90;79.70;;;;;;6340240;22;20054;-78
2022/08/13 08:55:53;;;;;;;1.70;1.60;;;24.90;80.40;;;;;;6340194;22;20002;-81
2022/08/13 08:58:19;;;;;;;5.55;1.88;;;25.00;80.30;;;;;;6339778;22;20367;-79
2022/08/13 09:00:47;;;;;;;2.83;2.22;;;25.10;80.50;;;;;;6340460;22;20006;-81
2022/08/13 09:03:18;;;;;;;3.08;1.92;;;25.10;79.00;;;;;;6339497;22;20295;-80
2022/08/13 09:05:45;;;;;;;2.10;1.90;;;25.20;78.60;;;;;;6339148;22;20013;-80
2022/08/13 09:08:15;;;;;;;3.15;1.80;;;25.20;77.90;;;;;;6339540;22;20003;-79
2022/08/13 09:10:42;;;;;;;3.15;2.00;;;25.30;78.00;;;;;;6339530;22;20078;-81
2022/08/13 09:13:09;;;;;;;3.58;2.08;;;25.40;78.40;;;;;;6340296;22;20124;-79
2022/08/13 09:15:39;;;;;;;1.98;1.83;;;25.50;78.20;;;;;;6340808;22;19994;-77
2022/08/13 09:18:05;;;;;;;4.88;1.98;;;25.50;78.00;;;;;;6338550;22;20017;-79
2022/08/13 09:20:33;;;;;;;7.57;2.00;;;25.60;78.20;;;;;;6339699;22;19995;-79
2022/08/13 09:23:12;;;;;;;5.97;1.90;;;25.60;78.20;;;;;;6339404;22;20019;-78
2022/08/13 09:25:48;;;;;;;2.42;2.08;;;25.70;77.80;;;;;;6338386;22;20026;-78
2022/08/13 09:28:22;;;;;;;4.55;1.67;;;25.80;77.40;;;;;;6338972;22;20078;-78
2022/08/13 09:30:49;;;;;;;4.75;4.15;;;25.90;77.60;;;;;;6339676;22;19999;-79
2022/08/13 09:33:14;;;;;;;15.40;9.27;;;26.00;76.90;;;;;;6338917;22;19999;-79
2022/08/13 09:35:41;;;;;;;10.35;7.82;;;26.10;76.50;;;;;;6339392;22;19995;-81
2022/08/13 09:38:07;;;;;;;12.75;8.73;;;26.10;75.70;;;;;;6339124;22;20007;-80
2022/08/13 09:40:38;;;;;;;7.25;6.55;;;26.10;74.80;;;;;;6334050;22;20034;-78
2022/08/13 09:43:12;;;;;;;11.35;7.07;;;26.20;75.30;;;;;;6337132;22;20006;-79
2022/08/13 09:45:39;;;;;;;10.05;8.07;;;26.20;75.60;;;;;;6337756;22;20026;-80
2022/08/13 09:48:07;;;;;;;7.82;6.85;;;26.40;75.00;;;;;;6336645;22;19994;-79
2022/08/13 09:50:33;;;;;;;11.02;8.07;;;26.40;75.00;;;;;;6337012;22;20116;-79
2022/08/13 09:52:59;;;;;;;17.13;9.45;;;26.60;75.20;;;;;;6337121;22;20006;-79
2022/08/13 09:55:24;;;;;;;11.23;10.13;;;26.70;75.00;;;;;;6338742;22;19998;-80
2022/08/13 09:57:52;;;;;;;12.95;9.30;;;26.70;74.60;;;;;;6341052;22;20014;-79
2022/08/13 10:00:23;;;;;;;9.93;8.93;;;26.70;74.30;;;;;;6337740;22;19999;-78
2022/08/13 10:02:52;;;;;;;11.55;8.40;;;26.80;75.20;;;;;;6338002;22;20007;-80
2022/08/13 10:05:18;;;;;;;15.30;7.75;;;26.80;75.40;;;;;;6338620;22;20025;-79
2022/08/13 10:07:45;;;;;;;12.95;8.05;;;26.90;75.00;;;;;;6339023;22;20033;-79
2022/08/13 10:10:11;;;;;;;10.95;6.53;;;26.90;74.80;;;;;;6336903;22;20018;-80
2022/08/13 10:12:37;;;;;;;11.50;6.82;;;26.90;75.10;;;;;;6337996;22;20311;-79
2022/08/13 10:15:03;;;;;;;11.15;6.00;;;27.00;74.50;;;;;;6338731;22;19999;-79
2022/08/13 10:17:46;;;;;;;10.07;6.55;;;27.10;75.10;;;;;;6337895;22;20454;-80
2022/08/13 10:20:18;;;;;;;10.25;3.83;;;27.20;74.60;;;;;;6339246;22;20006;-80
2022/08/13 10:22:44;;;;;;;4.20;2.42;;;27.30;74.20;;;;;;6338014;22;20037;-81
2022/08/13 10:25:10;;;;;;;2.22;2.00;;;27.30;72.70;;;;;;6338580;22;20419;-80
2022/08/13 10:27:36;;;;;;;2.08;1.88;;;27.40;73.00;;;;;;6339279;22;20044;-80
2022/08/13 10:30:03;;;;;;;3.22;2.20;;;27.40;73.00;;;;;;6338091;22;19999;-80
2022/08/13 10:32:29;;;;;;;1.73;1.63;;;27.40;73.00;;;;;;6337872;22;20462;-81
2022/08/13 10:34:54;;;;;;;2.17;1.70;;;27.40;72.10;;;;;;6338299;22;20052;-80
2022/08/13 10:37:21;;;;;;;1.88;1.60;;;27.50;72.60;;;;;;6337072;22;20013;-79
2022/08/13 10:39:47;;;;;;;3.25;1.70;;;27.60;72.30;;;;;;6338034;22;20330;-80
2022/08/13 10:42:12;;;;;;;1.98;1.77;;;27.60;72.50;;;;;;6338646;22;19999;-81
2022/08/13 10:44:40;;;;;;;1.55;1.45;;;27.70;71.80;;;;;;6342679;22;20006;-80
2022/08/13 10:47:06;;;;;;;1.70;1.60;;;27.80;71.60;;;;;;6339480;22;19996;-80
2022/08/13 10:49:33;;;;;;;4.53;1.40;;;27.90;70.70;;;;;;6338080;22;20082;-79
2022/08/13 10:51:59;;;;;;;1.52;1.42;;;28.00;70.60;;;;;;6338430;22;20496;-78
2022/08/13 10:54:25;;;;;;;3.75;1.80;;;28.10;70.70;;;;;;6338187;22;20002;-78
2022/08/13 10:56:51;;;;;;;6.00;1.77;;;28.10;70.70;;;;;;6338136;22;20114;-79
2022/08/13 10:59:17;;;;;;;4.10;1.50;;;28.20;70.10;;;;;;6337954;22;20405;-79
2022/08/13 11:01:42;;;;;;;3.28;1.90;;;28.20;70.40;;;;;;6338280;22;19995;-81
2022/08/13 11:04:09;;;;;;;3.20;1.75;;;28.20;70.30;;;;;;6338645;22;20036;-80
2022/08/13 11:06:36;;;;;;;4.38;1.50;;;28.20;69.70;;;;;;6338119;22;19994;-78
2022/08/13 11:09:05;;;;;;;1.60;1.50;;;28.30;69.00;;;;;;6337249;22;20002;-78
2022/08/13 11:11:32;;;;;;;2.55;1.40;;;28.30;69.50;;;;;;6336252;22;20068;-78
2022/08/13 11:13:58;;;;;;;3.70;1.85;;;28.40;69.40;;;;;;6337088;22;20002;-78
2022/08/13 11:16:56;;;;;;;3.78;1.80;;;28.40;69.50;;;;;;6337988;22;20007;-79
2022/08/13 11:19:15;;;;;;;9.88;1.85;;;28.40;69.60;;;;;;6337274;22;20015;-80
2022/08/13 11:21:46;;;;;;;2.33;1.80;;;28.60;68.60;;;;;;6338833;22;20006;-80
2022/08/13 11:24:12;;;;;;;3.10;1.77;;;28.70;69.50;;;;;;6338646;22;20062;-78
2022/08/13 11:26:38;;;;;;;4.28;1.98;;;28.80;68.20;;;;;;6337536;22;20018;-79
2022/08/13 11:29:04;;;;;;;1.67;1.58;;;28.90;67.80;;;;;;6338120;22;20027;-80
2022/08/13 11:31:30;;;;;;;2.22;1.80;;;28.90;67.40;;;;;;6337376;22;20013;-79
2022/08/13 11:33:56;;;;;;;1.92;1.63;;;28.90;67.80;;;;;;6338124;22;19999;-79
2022/08/13 11:36:22;;;;;;;2.75;1.50;;;29.00;68.10;;;;;;6337965;22;20022;-79
2022/08/13 11:38:47;;;;;;;3.40;1.13;;;29.10;67.00;;;;;;6337867;22;20011;-79
2022/08/13 11:41:13;;;;;;;2.97;1.67;;;29.20;65.20;;;;;;6337306;22;20060;-79
2022/08/13 11:43:38;;;;;;;1.63;1.50;;;29.20;66.40;;;;;;6338822;22;20026;-79
2022/08/13 11:46:04;;;;;;;3.58;1.70;;;29.30;66.80;;;;;;6338128;22;20364;-80
2022/08/13 11:48:30;;;;;;;1.95;1.60;;;29.40;67.20;;;;;;6338736;22;20082;-80
2022/08/13 11:50:56;;;;;;;3.28;1.70;;;29.40;66.90;;;;;;6338702;22;19998;-79
2022/08/13 11:53:23;;;;;;;2.05;1.75;;;29.50;66.10;;;;;;6337991;22;20327;-80
2022/08/13 11:55:49;;;;;;;4.35;1.98;;;29.60;66.40;;;;;;6339937;22;19999;-81
2022/08/13 11:58:14;;;;;;;5.25;1.60;;;29.60;66.80;;;;;;6338953;22;20010;-80
2022/08/13 12:00:42;;;;;;;2.30;1.83;;;29.70;66.80;;;;;;6338571;22;20334;-78
2022/08/13 12:03:08;;;;;;;2.90;1.50;;;29.70;66.10;;;;;;6339576;22;20022;-78
2022/08/13 12:05:34;;;;;;;1.23;1.15;;;29.70;65.80;;;;;;6339048;22;20003;-77
2022/08/13 12:08:00;;;;;;;6.72;1.48;;;29.80;64.90;;;;;;6338490;22;20010;-77
2022/08/13 12:10:27;;;;;;;2.70;1.50;;;29.90;65.40;;;;;;6337698;22;20025;-75
2022/08/13 12:12:53;;;;;;;7.53;1.52;;;29.90;64.90;;;;;;6338654;22;20013;-74
2022/08/13 12:15:18;;;;;;;5.18;1.40;;;29.90;64.60;;;;;;6338239;22;20030;-76
2022/08/13 12:17:46;;;;;;;2.90;1.40;;;30.00;65.00;;;;;;6339740;22;20014;-77
2022/08/13 12:20:16;;;;;;;6.28;1.73;;;30.10;64.70;;;;;;6337280;22;20052;-76
2022/08/13 12:22:41;;;;;;;1.57;1.47;;;30.10;64.10;;;;;;6336942;22;20006;-75
2022/08/13 12:25:11;;;;;;;2.35;1.30;;;30.20;64.10;;;;;;6338265;22;20230;-74
2022/08/13 12:27:39;;;;;;;3.80;1.20;;;30.30;64.00;;;;;;6337237;22;20006;-76
2022/08/13 12:30:05;;;;;;;3.00;1.65;;;30.30;63.70;;;;;;6338222;22;19995;-78
2022/08/13 12:32:31;;;;;;;1.90;1.52;;;30.30;62.90;;;;;;6337530;22;20037;-78
2022/08/13 12:34:57;;;;;;;4.45;1.85;;;30.40;62.60;;;;;;6337160;22;19998;-78
2022/08/13 12:37:23;;;;;;;5.28;1.27;;;30.50;62.50;;;;;;6337309;22;20123;-76
2022/08/13 12:39:50;;;;;;;4.18;1.50;;;30.60;62.40;;;;;;6337266;22;20026;-79
2022/08/13 12:42:16;;;;;;;2.83;1.52;;;30.80;62.50;;;;;;6335264;22;20007;-78
2022/08/13 12:44:41;;;;;;;9.32;1.55;;;30.90;62.20;;;;;;6336694;22;20337;-79
2022/08/13 12:47:07;;;;;;;4.25;1.77;;;31.00;62.60;;;;;;6337398;22;19999;-78
2022/08/13 12:49:33;;;;;;;1.50;1.30;;;31.10;61.50;;;;;;6336126;22;20006;-81
2022/08/13 12:52:04;;;;;;;4.10;1.10;;;31.10;61.70;;;;;;6337369;22;19998;-79
2022/08/13 12:54:30;;;;;;;3.58;1.48;;;31.10;60.30;;;;;;6336511;22;20068;-78
2022/08/13 12:56:56;;;;;;;2.80;1.30;;;31.20;59.40;;;;;;6336799;22;20034;-79
2022/08/13 12:59:22;;;;;;;4.18;1.33;;;31.40;59.10;;;;;;6335716;22;20464;-80
2022/08/13 13:01:52;;;;;;;4.03;1.13;;;31.40;60.00;;;;;;6337982;22;20027;-80
2022/08/13 13:04:22;;;;;;;2.20;1.30;;;31.40;59.50;;;;;;6338875;22;20026;-80
2022/08/13 13:06:50;;;;;;;;;;;31.60;59.80;;;;;;6341033;22;19995;-80